createdAt,value
2023-04-18T20:40:08.930Z,100214.81
2023-04-18T20:42:38.794Z,100240.56
2023-04-18T20:45:11.024Z,100231.50
2023-04-18T20:47:41.417Z,100233.06
2023-04-18T20:50:10.676Z,100245.41
2023-04-18T20:52:38.593Z,100246.25
2023-04-18T20:55:06.655Z,100240.03
2023-04-18T20:57:34.475Z,100245.91
2023-04-18T21:00:02.296Z,100247.38
2023-04-18T21:02:36.328Z,100253.22
2023-04-18T21:05:07.416Z,100249.56
2023-04-18T21:07:36.248Z,100250.91
2023-04-18T21:10:04.609Z,100253.94
2023-04-18T21:12:35.933Z,100248.31
2023-04-18T21:15:05.603Z,100255.88
2023-04-18T21:17:33.816Z,100256.13
2023-04-18T21:20:01.697Z,100259.78
2023-04-18T21:22:31.061Z,100265.66
2023-04-18T21:24:58.862Z,100260.03
2023-04-18T21:27:26.606Z,100254.00
2023-04-18T21:29:54.320Z,100260.72
2023-04-18T21:32:22.027Z,100255.97
2023-04-18T21:34:49.790Z,100256.44
2023-04-18T21:37:17.543Z,100269.41
2023-04-18T21:39:45.396Z,100268.81
2023-04-18T21:42:13.126Z,100265.13
2023-04-18T21:44:40.963Z,100263.41
2023-04-18T21:47:08.701Z,100266.91
2023-04-18T21:49:36.469Z,100267.78
2023-04-18T21:52:04.302Z,100269.97
2023-04-18T21:54:32.187Z,100271.94
2023-04-18T21:56:59.919Z,100274.75
2023-04-18T21:59:27.758Z,100271.72
2023-04-18T22:02:01.441Z,100278.44
2023-04-18T22:04:29.523Z,100274.53
2023-04-18T22:06:57.706Z,100276.75
2023-04-18T22:09:25.690Z,100280.66
2023-04-18T22:11:56.946Z,100284.75
2023-04-18T22:14:25.000Z,100276.81
2023-04-18T22:16:54.250Z,100271.44
2023-04-18T22:19:22.443Z,100276.41
2023-04-18T22:21:50.132Z,100276.66
2023-04-18T22:24:19.717Z,100264.25
2023-04-18T22:26:47.666Z,100266.09
2023-04-18T22:29:15.394Z,100269.13
2023-04-18T22:31:43.358Z,100269.38
2023-04-18T22:34:11.111Z,100269.84
2023-04-18T22:36:39.024Z,100272.00
2023-04-18T22:39:07.568Z,100261.03
2023-04-18T22:41:35.436Z,100265.53
2023-04-18T22:44:03.506Z,100269.06
2023-04-18T22:46:33.098Z,100256.81
2023-04-18T22:49:00.857Z,100259.59
2023-04-18T22:51:29.026Z,100260.06
2023-04-18T22:53:56.753Z,100262.66
2023-04-18T22:56:24.483Z,100251.25
2023-04-18T22:58:52.192Z,100252.09
2023-04-18T23:01:20.180Z,100246.72
2023-04-18T23:03:48.121Z,100256.44
2023-04-18T23:06:16.441Z,100251.94
2023-04-18T23:08:44.388Z,100253.03
2023-04-18T23:11:13.752Z,100252.16
2023-04-18T23:13:41.754Z,100253.75
2023-04-18T23:16:09.462Z,100252.00
2023-04-18T23:18:37.269Z,100240.38
2023-04-18T23:21:05.238Z,100249.91
2023-04-18T23:23:33.312Z,100253.16
2023-04-18T23:26:01.108Z,100255.09
2023-04-18T23:28:28.981Z,100260.09
2023-04-18T23:30:56.734Z,100253.22
2023-04-18T23:33:24.433Z,100253.22
2023-04-18T23:35:52.183Z,100255.16
2023-04-18T23:38:20.134Z,100260.16
2023-04-18T23:40:47.796Z,100253.69
2023-04-18T23:43:15.553Z,100242.28
2023-04-18T23:45:44.120Z,100242.28
2023-04-18T23:48:12.444Z,100234.31
2023-04-18T23:50:47.983Z,100250.94
2023-04-18T23:53:19.852Z,100246.19
2023-04-18T23:55:50.098Z,100246.41
2023-04-18T23:58:18.660Z,100246.41
